createdAt,value
2022-12-16T00:01:13.928Z,0
2022-12-16T00:04:39.212Z,0
2022-12-16T00:08:04.494Z,0
2022-12-16T00:11:29.768Z,0
2022-12-16T00:14:55.127Z,0
2022-12-16T00:18:20.333Z,0
2022-12-16T00:21:45.570Z,0
2022-12-16T00:25:10.871Z,0
2022-12-16T00:28:36.125Z,0
2022-12-16T00:32:01.547Z,0
2022-12-16T00:35:26.690Z,0
2022-12-16T00:38:51.966Z,0
2022-12-16T00:42:17.226Z,0
2022-12-16T00:45:42.548Z,0
2022-12-16T00:49:07.803Z,0
2022-12-16T00:52:33.072Z,0
2022-12-16T00:55:58.305Z,0
2022-12-16T00:59:23.575Z,0
2022-12-16T01:02:48.971Z,0
2022-12-16T01:06:14.126Z,0
2022-12-16T01:09:39.354Z,0
2022-12-16T01:13:04.617Z,0
2022-12-16T01:16:29.935Z,0
2022-12-16T01:19:55.134Z,0
2022-12-16T01:23:20.426Z,0
2022-12-16T01:26:45.671Z,0
2022-12-16T01:30:10.959Z,0
2022-12-16T01:33:36.596Z,0
2022-12-16T01:37:01.558Z,0
2022-12-16T01:40:26.864Z,0
2022-12-16T01:43:52.088Z,0
2022-12-16T01:47:17.345Z,0
2022-12-16T01:50:42.651Z,0
2022-12-16T01:54:07.898Z,0
2022-12-16T01:57:33.215Z,0
2022-12-16T02:00:58.454Z,0
2022-12-16T02:04:23.717Z,0
2022-12-16T02:07:48.978Z,0
2022-12-16T02:11:14.232Z,0
2022-12-16T02:14:39.523Z,0
2022-12-16T02:18:04.775Z,0
2022-12-16T02:21:30.043Z,0
2022-12-16T02:24:55.319Z,0
2022-12-16T02:28:20.589Z,0
2022-12-16T02:31:48.110Z,0
2022-12-16T02:35:11.141Z,0
2022-12-16T02:38:36.383Z,0
2022-12-16T02:42:01.661Z,0
2022-12-16T02:45:26.935Z,0
2022-12-16T02:48:52.310Z,0
2022-12-16T02:52:17.452Z,0
2022-12-16T02:55:42.740Z,0
2022-12-16T02:59:07.998Z,0
2022-12-16T03:02:33.386Z,0
2022-12-16T03:05:58.574Z,0
2022-12-16T03:09:23.828Z,0
2022-12-16T03:12:49.063Z,0
2022-12-16T03:16:14.397Z,0
2022-12-16T03:19:39.593Z,0
2022-12-16T03:23:04.887Z,0
2022-12-16T03:26:30.142Z,0
2022-12-16T03:29:55.372Z,0
2022-12-16T03:33:20.648Z,0
2022-12-16T03:36:45.917Z,0
2022-12-16T03:40:11.227Z,0
2022-12-16T03:43:36.435Z,0
2022-12-16T03:47:01.697Z,0
2022-12-16T03:50:26.967Z,0
2022-12-16T03:53:52.233Z,0
2022-12-16T03:57:17.498Z,0
2022-12-16T04:00:42.761Z,0
2022-12-16T04:04:08.029Z,0
2022-12-16T04:07:33.290Z,0
2022-12-16T04:10:58.548Z,0
2022-12-16T04:14:23.841Z,0
2022-12-16T04:17:49.096Z,0
2022-12-16T04:21:14.344Z,0
2022-12-16T04:24:39.605Z,0
2022-12-16T04:28:04.858Z,0
2022-12-16T04:31:30.228Z,0
2022-12-16T04:34:55.478Z,0
2022-12-16T04:38:20.836Z,0
2022-12-16T04:41:46.488Z,0
2022-12-16T04:45:11.771Z,0
2022-12-16T04:48:37.060Z,0
2022-12-16T04:52:02.305Z,0
2022-12-16T04:55:27.625Z,0
2022-12-16T04:58:52.879Z,0
2022-12-16T05:02:18.213Z,0
2022-12-16T05:05:43.425Z,0
2022-12-16T05:09:08.673Z,0
2022-12-16T05:12:33.916Z,0
2022-12-16T05:15:59.279Z,0
2022-12-16T05:19:28.450Z,0
2022-12-16T05:22:49.880Z,0
2022-12-16T05:26:15.014Z,0
2022-12-16T05:29:40.286Z,0
2022-12-16T05:33:05.542Z,0
2022-12-16T05:36:30.805Z,0
2022-12-16T05:39:56.097Z,0
2022-12-16T05:43:21.327Z,0
2022-12-16T05:46:46.695Z,0
2022-12-16T05:50:11.780Z,0
2022-12-16T05:53:37.004Z,0
2022-12-16T05:57:02.249Z,0
2022-12-16T06:00:27.478Z,0
2022-12-16T06:03:52.744Z,0
2022-12-16T06:07:18.131Z,0
2022-12-16T06:10:43.225Z,0
2022-12-16T06:14:08.574Z,0
2022-12-16T06:17:33.839Z,0
2022-12-16T06:20:59.142Z,0
2022-12-16T06:24:24.425Z,0
2022-12-16T06:27:49.661Z,0
2022-12-16T06:31:14.965Z,0
2022-12-16T06:34:40.112Z,0
2022-12-16T06:38:05.355Z,0
2022-12-16T06:41:30.601Z,0
2022-12-16T06:44:55.869Z,0
2022-12-16T06:48:21.300Z,0
2022-12-16T06:51:46.362Z,0
2022-12-16T06:55:11.586Z,0
2022-12-16T06:58:36.839Z,0
2022-12-16T07:02:02.174Z,0
2022-12-16T07:05:27.475Z,0
2022-12-16T07:08:52.541Z,0
2022-12-16T07:12:17.831Z,0
2022-12-16T07:15:42.983Z,0
2022-12-16T07:19:08.214Z,0
2022-12-16T07:22:33.631Z,6
2022-12-16T07:25:58.749Z,6
2022-12-16T07:29:23.978Z,6
2022-12-16T07:32:49.219Z,6
2022-12-16T07:36:14.435Z,11
2022-12-16T07:39:39.754Z,11
2022-12-16T07:43:04.937Z,11
2022-12-16T07:46:30.284Z,11
2022-12-16T07:49:55.672Z,11
2022-12-16T07:53:20.630Z,17
2022-12-16T07:56:45.881Z,17
2022-12-16T08:00:11.083Z,23
2022-12-16T08:03:36.942Z,23
2022-12-16T08:07:01.529Z,23
2022-12-16T08:10:26.791Z,28
2022-12-16T08:13:52.061Z,28
2022-12-16T08:17:17.333Z,28
2022-12-16T08:20:42.515Z,28
2022-12-16T08:24:07.738Z,28
2022-12-16T08:27:32.931Z,28
2022-12-16T08:30:58.245Z,28
2022-12-16T08:34:23.379Z,28
2022-12-16T08:37:48.612Z,28
2022-12-16T08:41:13.829Z,34
2022-12-16T08:44:39.086Z,34
2022-12-16T08:48:04.384Z,34
2022-12-16T08:51:29.570Z,34
2022-12-16T08:54:54.818Z,34
2022-12-16T08:58:20.054Z,51
2022-12-16T09:01:45.344Z,62
2022-12-16T09:05:10.520Z,56
2022-12-16T09:08:35.733Z,51
2022-12-16T09:12:00.941Z,56
2022-12-16T09:15:26.228Z,45
2022-12-16T09:18:51.404Z,56
2022-12-16T09:22:16.689Z,56
2022-12-16T09:25:41.877Z,51
2022-12-16T09:29:07.103Z,68
2022-12-16T09:32:32.334Z,84
2022-12-16T09:35:57.563Z,101
2022-12-16T09:39:22.837Z,84
2022-12-16T09:42:48.045Z,68
2022-12-16T09:46:13.302Z,68
2022-12-16T09:49:38.538Z,68
2022-12-16T09:53:03.772Z,84
2022-12-16T09:56:29.043Z,84
2022-12-16T09:59:54.255Z,68
2022-12-16T10:03:19.594Z,73
2022-12-16T10:06:44.730Z,68
2022-12-16T10:10:09.964Z,73
2022-12-16T10:13:35.554Z,79
2022-12-16T10:17:00.479Z,73
2022-12-16T10:20:25.746Z,101
2022-12-16T10:23:50.973Z,79
2022-12-16T10:27:16.218Z,90
2022-12-16T10:30:41.571Z,68
2022-12-16T10:34:06.722Z,73
2022-12-16T10:37:31.960Z,101
2022-12-16T10:40:57.181Z,107
2022-12-16T10:44:22.401Z,84
2022-12-16T10:47:47.697Z,79
2022-12-16T10:51:12.904Z,84
2022-12-16T10:54:38.111Z,118
2022-12-16T10:58:03.340Z,135
2022-12-16T11:01:28.629Z,141
2022-12-16T11:04:54.293Z,113
2022-12-16T11:08:19.136Z,135
2022-12-16T11:11:44.357Z,152
2022-12-16T11:18:34.870Z,163
2022-12-16T11:22:00.154Z,113
2022-12-16T11:25:26.920Z,101
2022-12-16T11:28:52.195Z,208
2022-12-16T11:32:17.439Z,124
2022-12-16T11:35:42.699Z,152
2022-12-16T11:39:07.997Z,135
2022-12-16T11:42:33.237Z,158
2022-12-16T11:45:58.487Z,141
2022-12-16T11:49:25.562Z,214
2022-12-16T11:52:49.032Z,135
2022-12-16T11:56:16.454Z,197
2022-12-16T11:59:39.537Z,219
2022-12-16T12:03:04.921Z,180
2022-12-16T12:06:30.117Z,129
2022-12-16T12:09:55.407Z,214
2022-12-16T12:13:27.190Z,135
2022-12-16T12:16:52.402Z,107
2022-12-16T12:20:17.690Z,107
2022-12-16T12:23:42.955Z,73
2022-12-16T12:27:08.218Z,113
2022-12-16T12:30:33.524Z,101
2022-12-16T12:33:58.762Z,96
2022-12-16T12:37:24.028Z,56
2022-12-16T12:40:49.316Z,62
2022-12-16T12:44:14.585Z,51
2022-12-16T12:47:39.892Z,68
2022-12-16T12:51:05.132Z,45
2022-12-16T12:54:33.362Z,45
2022-12-16T12:57:55.689Z,56
2022-12-16T13:01:21.157Z,79
2022-12-16T13:04:46.465Z,68
2022-12-16T13:08:11.597Z,51
2022-12-16T13:11:36.940Z,45
2022-12-16T13:15:02.269Z,45
2022-12-16T13:18:27.558Z,51
2022-12-16T13:21:52.978Z,51
2022-12-16T13:25:22.349Z,56
2022-12-16T13:28:43.474Z,51
2022-12-16T13:32:08.834Z,56
2022-12-16T13:35:34.130Z,34
2022-12-16T13:38:59.483Z,34
2022-12-16T13:42:24.788Z,28
2022-12-16T13:45:50.148Z,28
2022-12-16T13:49:18.143Z,28
2022-12-16T13:52:40.680Z,28
2022-12-16T13:56:06.081Z,34
2022-12-16T13:59:31.442Z,34
2022-12-16T14:02:56.758Z,34
2022-12-16T14:06:22.110Z,34
2022-12-16T14:09:47.396Z,34
2022-12-16T14:13:12.853Z,34
2022-12-16T14:16:38.228Z,23
2022-12-16T14:20:03.503Z,23
2022-12-16T14:23:55.098Z,23
2022-12-16T14:26:54.031Z,23
2022-12-16T14:30:19.387Z,17
2022-12-16T15:06:29.728Z,0
2022-12-16T15:09:55.840Z,0
2022-12-16T15:13:20.203Z,0
2022-12-16T15:16:45.505Z,0
2022-12-16T15:20:10.709Z,0
2022-12-16T15:23:36.289Z,0
2022-12-16T15:27:01.269Z,0
2022-12-16T15:30:26.536Z,0
2022-12-16T15:33:51.827Z,0
2022-12-16T15:37:17.108Z,0
2022-12-16T15:40:42.543Z,0
2022-12-16T15:44:07.664Z,0
2022-12-16T15:47:33.021Z,0
2022-12-16T15:50:58.329Z,0
2022-12-16T15:54:23.777Z,0
2022-12-16T15:57:49.150Z,0
2022-12-16T16:01:14.380Z,0
2022-12-16T16:04:39.867Z,0
2022-12-16T16:08:05.657Z,0
2022-12-16T16:11:30.449Z,0
2022-12-16T16:14:55.795Z,0
2022-12-16T16:18:21.030Z,0
2022-12-16T16:21:46.333Z,0
2022-12-16T16:25:11.715Z,0
2022-12-16T16:28:37.027Z,0
2022-12-16T16:32:04.262Z,0
2022-12-16T16:35:27.559Z,0
2022-12-16T16:38:52.939Z,0
2022-12-16T16:42:18.168Z,0
2022-12-16T16:45:43.416Z,0
2022-12-16T16:49:08.794Z,0
2022-12-16T16:52:34.032Z,0
2022-12-16T16:55:59.347Z,0
2022-12-16T16:59:24.606Z,0
2022-12-16T17:02:50.231Z,0
2022-12-16T17:06:15.300Z,0
2022-12-16T17:09:40.773Z,0
2022-12-16T17:13:06.031Z,0
2022-12-16T17:16:31.557Z,0
2022-12-16T17:19:56.768Z,0
2022-12-16T17:23:22.059Z,0
2022-12-16T17:26:47.376Z,0
2022-12-16T17:30:12.642Z,0
2022-12-16T17:33:38.204Z,0
2022-12-16T17:37:03.147Z,0
2022-12-16T17:40:28.467Z,0
2022-12-16T17:43:54.354Z,0
2022-12-16T17:47:19.591Z,0
2022-12-16T17:50:44.865Z,0
2022-12-16T17:54:17.805Z,0
2022-12-16T17:57:35.431Z,0
2022-12-16T18:01:00.680Z,0
2022-12-16T18:04:26.102Z,0
2022-12-16T18:07:51.294Z,0
2022-12-16T18:11:16.571Z,0
2022-12-16T18:14:41.910Z,0
2022-12-16T18:18:07.135Z,0
2022-12-16T18:21:32.411Z,0
2022-12-16T18:24:57.686Z,0
2022-12-16T18:28:22.952Z,0
2022-12-16T18:31:48.241Z,0
2022-12-16T18:35:13.547Z,0
2022-12-16T18:38:38.795Z,0
2022-12-16T18:42:04.077Z,0
2022-12-16T18:45:29.402Z,0
2022-12-16T18:48:54.704Z,0
2022-12-16T18:52:19.967Z,0
2022-12-16T18:55:45.217Z,0
2022-12-16T18:59:10.503Z,0
2022-12-16T19:02:35.951Z,0
2022-12-16T19:06:01.031Z,0
2022-12-16T19:09:26.342Z,0
2022-12-16T19:12:51.623Z,0
2022-12-16T19:16:16.971Z,0
2022-12-16T19:19:42.179Z,0
2022-12-16T19:23:07.520Z,0
2022-12-16T19:26:32.757Z,0
2022-12-16T19:29:58.031Z,0
2022-12-16T19:33:23.282Z,0
2022-12-16T19:36:48.553Z,0
2022-12-16T19:40:13.850Z,0
2022-12-16T19:43:39.106Z,0
2022-12-16T19:47:04.348Z,0
2022-12-16T19:50:29.606Z,0
2022-12-16T19:57:20.177Z,0
2022-12-16T20:00:45.430Z,0
2022-12-16T20:04:10.698Z,0
2022-12-16T20:07:35.977Z,0
2022-12-16T20:11:01.254Z,0
2022-12-16T20:14:26.971Z,0
2022-12-16T20:17:51.838Z,0
2022-12-16T20:21:17.012Z,0
2022-12-16T20:24:42.270Z,0
2022-12-16T20:28:07.550Z,0
2022-12-16T20:31:32.911Z,0
2022-12-16T20:34:58.171Z,0
2022-12-16T20:38:23.407Z,0
2022-12-16T20:41:48.668Z,0
2022-12-16T20:45:14.023Z,0
2022-12-16T20:48:39.325Z,0
2022-12-16T20:52:04.610Z,0
2022-12-16T20:55:29.866Z,0
2022-12-16T20:58:56.043Z,0
2022-12-16T21:02:25.993Z,0
2022-12-16T21:05:45.764Z,0
2022-12-16T21:09:11.029Z,0
2022-12-16T21:12:36.265Z,0
2022-12-16T21:16:01.569Z,0
2022-12-16T21:19:32.987Z,0
2022-12-16T21:22:52.170Z,0
2022-12-16T21:26:17.372Z,0
2022-12-16T21:29:42.606Z,0
2022-12-16T21:33:07.916Z,0
2022-12-16T21:36:33.174Z,0
2022-12-16T21:39:58.461Z,0
2022-12-16T21:43:23.683Z,0
2022-12-16T21:46:48.978Z,0
2022-12-16T21:50:14.220Z,0
2022-12-16T21:53:40.314Z,0
2022-12-16T21:57:05.566Z,0
2022-12-16T22:00:30.839Z,0
2022-12-16T22:03:56.689Z,0
2022-12-16T22:07:21.336Z,0
2022-12-16T22:10:46.595Z,0
2022-12-16T22:14:11.913Z,0
2022-12-16T22:17:37.255Z,0
2022-12-16T22:21:02.415Z,0
2022-12-16T22:24:27.704Z,0
2022-12-16T22:27:52.944Z,0
2022-12-16T22:31:18.277Z,0
2022-12-16T22:34:43.481Z,0
2022-12-16T22:38:08.750Z,0
2022-12-16T22:41:34.023Z,0
2022-12-16T22:44:59.309Z,0
2022-12-16T22:48:24.591Z,0
2022-12-16T22:51:49.839Z,0
2022-12-16T22:55:15.095Z,0
2022-12-16T22:58:40.341Z,0
2022-12-16T23:02:05.667Z,0
2022-12-16T23:05:30.872Z,0
2022-12-16T23:08:56.718Z,0
2022-12-16T23:12:21.404Z,0
2022-12-16T23:15:46.683Z,0
2022-12-16T23:19:11.940Z,0
2022-12-16T23:22:37.252Z,0
2022-12-16T23:26:02.480Z,0
2022-12-16T23:29:27.759Z,0
2022-12-16T23:32:53.038Z,0
2022-12-16T23:36:18.265Z,0
2022-12-16T23:39:43.561Z,0
2022-12-16T23:43:08.794Z,0
2022-12-16T23:46:34.091Z,0
2022-12-16T23:49:59.369Z,0
2022-12-16T23:53:24.618Z,0
2022-12-16T23:56:49.911Z,0
